ROMMA est une association bénévole à but non lucratif. Votre soutien est indispensable : ADHERER à ROMMA ou FAIRE un DON

La Javie - (04, Alpes de Haute Provence)

Vallée de la Bléone (820 m)   Longitude: 06° 21' E   Latitude: 44° 10' N Station partenaire n°129
 

Détail journalier du     <<     >>

Température Precipitation Humidité Pression Vent Dir Rafale Dir. rafale Ensol.
Heure (°C) (mm) (%) (hPa) (km/h) (km/h) (min)
01:00 7.8099101202---0
02:00 7.2099101200---0
03:00 6.1099101200---0
04:00 5.1099101200---0
05:00 4.4099101203---0
06:00 4.60100101100---0
07:00 4.00100101200---0
08:00 3.90.2100101200---0
09:00 5.40100101200---0
10:00 10.906610121---10---0
11:00 14.2053101208---0
12:00 14.704610112---16---0
13:00 16.604610115---21---0
14:00 17.004110118---21---0
15:00 17.304310116---24---0
16:00 17.704910116---29---0
17:00 17.404210116---21---0
18:00 16.904410115---18---0
19:00 15.704610123---16---0
20:00 14.105110121---11---0
21:00 11.9062101303---0
22:00 9.2077101306---0
23:00 7.4082101400---0
minuit 6.3088101400---0

Graphique du 29-04-2020

 

Serveur OMMA